sensor_id;sensor_type;location;lat;lon;timestamp;P1;durP1;ratioP1;P2;durP2;ratioP2
37535;SDS011;23379;51.554;6.736;2022-08-03T00:00:39;0.17;;;0.10;;
37535;SDS011;23379;51.554;6.736;2022-08-03T00:03:05;0.50;;;0.50;;
37535;SDS011;23379;51.554;6.736;2022-08-03T00:05:31;0.40;;;0.40;;
37535;SDS011;23379;51.554;6.736;2022-08-03T00:07:57;1.15;;;0.57;;
37535;SDS011;23379;51.554;6.736;2022-08-03T00:10:24;0.28;;;0.28;;
37535;SDS011;23379;51.554;6.736;2022-08-03T00:12:49;0.30;;;0.30;;
37535;SDS011;23379;51.554;6.736;2022-08-03T00:15:15;0.77;;;0.43;;
37535;SDS011;23379;51.554;6.736;2022-08-03T00:17:40;0.30;;;0.30;;
37535;SDS011;23379;51.554;6.736;2022-08-03T00:20:06;0.15;;;0.15;;
37535;SDS011;23379;51.554;6.736;2022-08-03T00:22:33;0.32;;;0.32;;
37535;SDS011;23379;51.554;6.736;2022-08-03T00:24:59;0.38;;;0.25;;
37535;SDS011;23379;51.554;6.736;2022-08-03T00:27:24;0.45;;;0.40;;
37535;SDS011;23379;51.554;6.736;2022-08-03T00:29:50;7.93;;;1.67;;
37535;SDS011;23379;51.554;6.736;2022-08-03T00:32:15;0.45;;;0.40;;
37535;SDS011;23379;51.554;6.736;2022-08-03T00:34:40;0.22;;;0.22;;
37535;SDS011;23379;51.554;6.736;2022-08-03T00:37:06;0.30;;;0.30;;
37535;SDS011;23379;51.554;6.736;2022-08-03T00:39:31;2.53;;;1.05;;
37535;SDS011;23379;51.554;6.736;2022-08-03T00:42:00;1.65;;;0.63;;
37535;SDS011;23379;51.554;6.736;2022-08-03T00:44:26;0.52;;;0.50;;
37535;SDS011;23379;51.554;6.736;2022-08-03T00:46:52;0.32;;;0.32;;
37535;SDS011;23379;51.554;6.736;2022-08-03T00:49:20;0.20;;;0.20;;
37535;SDS011;23379;51.554;6.736;2022-08-03T00:51:52;0.57;;;0.57;;
37535;SDS011;23379;51.554;6.736;2022-08-03T00:54:17;0.17;;;0.17;;
37535;SDS011;23379;51.554;6.736;2022-08-03T00:56:43;0.15;;;0.15;;
37535;SDS011;23379;51.554;6.736;2022-08-03T00:59:09;0.00;;;0.00;;
37535;SDS011;23379;51.554;6.736;2022-08-03T01:01:35;0.45;;;0.43;;
37535;SDS011;23379;51.554;6.736;2022-08-03T01:04:00;1.45;;;0.47;;
37535;SDS011;23379;51.554;6.736;2022-08-03T01:09:00;0.47;;;0.47;;
37535;SDS011;23379;51.554;6.736;2022-08-03T01:11:37;1.50;;;0.52;;
37535;SDS011;23379;51.554;6.736;2022-08-03T01:14:23;2.38;;;0.52;;
37535;SDS011;23379;51.554;6.736;2022-08-03T01:16:56;1.20;;;0.28;;
37535;SDS011;23379;51.554;6.736;2022-08-03T01:30:20;0.40;;;0.40;;
37535;SDS011;23379;51.554;6.736;2022-08-03T01:33:02;0.68;;;0.68;;
37535;SDS011;23379;51.554;6.736;2022-08-03T01:38:27;0.30;;;0.30;;
37535;SDS011;23379;51.554;6.736;2022-08-03T01:40:57;0.95;;;0.40;;
37535;SDS011;23379;51.554;6.736;2022-08-03T01:43:28;0.90;;;0.65;;
37535;SDS011;23379;51.554;6.736;2022-08-03T01:45:55;0.50;;;0.50;;
37535;SDS011;23379;51.554;6.736;2022-08-03T01:48:21;1.48;;;0.75;;
37535;SDS011;23379;51.554;6.736;2022-08-03T01:50:48;0.45;;;0.45;;
37535;SDS011;23379;51.554;6.736;2022-08-03T01:53:16;0.40;;;0.40;;
37535;SDS011;23379;51.554;6.736;2022-08-03T01:55:44;0.28;;;0.28;;
37535;SDS011;23379;51.554;6.736;2022-08-03T01:58:12;18.60;;;2.03;;
37535;SDS011;23379;51.554;6.736;2022-08-03T02:00:39;0.22;;;0.22;;
37535;SDS011;23379;51.554;6.736;2022-08-03T02:03:06;0.30;;;0.30;;
37535;SDS011;23379;51.554;6.736;2022-08-03T02:05:32;0.68;;;0.68;;
37535;SDS011;23379;51.554;6.736;2022-08-03T02:07:59;0.57;;;0.30;;
37535;SDS011;23379;51.554;6.736;2022-08-03T02:10:27;0.60;;;0.60;;
37535;SDS011;23379;51.554;6.736;2022-08-03T02:12:53;0.50;;;0.50;;
37535;SDS011;23379;51.554;6.736;2022-08-03T02:15:19;19.20;;;0.65;;
37535;SDS011;23379;51.554;6.736;2022-08-03T02:17:47;0.52;;;0.52;;
37535;SDS011;23379;51.554;6.736;2022-08-03T02:20:13;0.35;;;0.35;;
37535;SDS011;23379;51.554;6.736;2022-08-03T02:22:40;0.38;;;0.28;;
37535;SDS011;23379;51.554;6.736;2022-08-03T02:25:07;0.52;;;0.52;;
37535;SDS011;23379;51.554;6.736;2022-08-03T02:27:34;0.52;;;0.52;;
37535;SDS011;23379;51.554;6.736;2022-08-03T02:30:02;0.73;;;0.50;;
37535;SDS011;23379;51.554;6.736;2022-08-03T02:35:03;0.43;;;0.43;;
37535;SDS011;23379;51.554;6.736;2022-08-03T02:37:31;0.30;;;0.30;;
37535;SDS011;23379;51.554;6.736;2022-08-03T02:40:03;0.75;;;0.57;;
37535;SDS011;23379;51.554;6.736;2022-08-03T02:42:32;0.63;;;0.40;;
37535;SDS011;23379;51.554;6.736;2022-08-03T02:44:59;0.50;;;0.50;;
37535;SDS011;23379;51.554;6.736;2022-08-03T02:47:29;0.57;;;0.57;;
37535;SDS011;23379;51.554;6.736;2022-08-03T02:49:56;0.50;;;0.50;;
37535;SDS011;23379;51.554;6.736;2022-08-03T02:52:25;0.50;;;0.50;;
37535;SDS011;23379;51.554;6.736;2022-08-03T02:54:55;0.60;;;0.60;;
37535;SDS011;23379;51.554;6.736;2022-08-03T02:57:24;0.40;;;0.40;;
37535;SDS011;23379;51.554;6.736;2022-08-03T02:59:51;1.88;;;0.65;;
37535;SDS011;23379;51.554;6.736;2022-08-03T03:02:17;0.20;;;0.20;;
37535;SDS011;23379;51.554;6.736;2022-08-03T03:04:44;0.65;;;0.30;;
37535;SDS011;23379;51.554;6.736;2022-08-03T03:07:13;0.63;;;0.63;;
37535;SDS011;23379;51.554;6.736;2022-08-03T03:09:40;1.15;;;0.63;;
37535;SDS011;23379;51.554;6.736;2022-08-03T03:12:07;0.50;;;0.50;;
37535;SDS011;23379;51.554;6.736;2022-08-03T03:14:35;0.30;;;0.30;;
37535;SDS011;23379;51.554;6.736;2022-08-03T03:17:01;0.65;;;0.63;;
37535;SDS011;23379;51.554;6.736;2022-08-03T03:19:27;0.20;;;0.20;;
37535;SDS011;23379;51.554;6.736;2022-08-03T03:21:56;2.05;;;0.60;;
37535;SDS011;23379;51.554;6.736;2022-08-03T03:24:24;0.68;;;0.68;;
37535;SDS011;23379;51.554;6.736;2022-08-03T03:26:51;0.50;;;0.50;;
37535;SDS011;23379;51.554;6.736;2022-08-03T03:29:17;2.40;;;1.13;;
37535;SDS011;23379;51.554;6.736;2022-08-03T03:31:43;0.60;;;0.52;;
37535;SDS011;23379;51.554;6.736;2022-08-03T03:34:08;0.75;;;0.70;;
37535;SDS011;23379;51.554;6.736;2022-08-03T03:36:34;0.30;;;0.30;;
37535;SDS011;23379;51.554;6.736;2022-08-03T03:39:00;0.90;;;0.73;;
37535;SDS011;23379;51.554;6.736;2022-08-03T03:41:25;0.40;;;0.40;;
37535;SDS011;23379;51.554;6.736;2022-08-03T03:43:50;9.85;;;1.13;;
37535;SDS011;23379;51.554;6.736;2022-08-03T03:46:16;1.73;;;1.20;;
37535;SDS011;23379;51.554;6.736;2022-08-03T03:48:41;2.08;;;0.68;;
37535;SDS011;23379;51.554;6.736;2022-08-03T03:51:08;0.38;;;0.38;;
37535;SDS011;23379;51.554;6.736;2022-08-03T03:53:34;1.65;;;0.85;;
37535;SDS011;23379;51.554;6.736;2022-08-03T03:55:59;1.10;;;1.00;;
37535;SDS011;23379;51.554;6.736;2022-08-03T03:58:25;0.55;;;0.55;;
37535;SDS011;23379;51.554;6.736;2022-08-03T04:00:50;0.55;;;0.43;;
37535;SDS011;23379;51.554;6.736;2022-08-03T04:03:17;0.73;;;0.70;;
37535;SDS011;23379;51.554;6.736;2022-08-03T04:05:43;0.50;;;0.50;;
37535;SDS011;23379;51.554;6.736;2022-08-03T04:08:27;1.00;;;0.80;;
37535;SDS011;23379;51.554;6.736;2022-08-03T04:11:18;1.38;;;1.27;;
37535;SDS011;23379;51.554;6.736;2022-08-03T04:16:11;0.50;;;0.50;;
37535;SDS011;23379;51.554;6.736;2022-08-03T04:18:39;0.82;;;0.82;;
37535;SDS011;23379;51.554;6.736;2022-08-03T04:21:07;1.02;;;0.90;;
37535;SDS011;23379;51.554;6.736;2022-08-03T04:23:37;0.60;;;0.60;;
37535;SDS011;23379;51.554;6.736;2022-08-03T04:26:07;2.50;;;1.42;;
37535;SDS011;23379;51.554;6.736;2022-08-03T04:28:36;1.13;;;0.80;;
37535;SDS011;23379;51.554;6.736;2022-08-03T04:31:03;0.50;;;0.50;;
37535;SDS011;23379;51.554;6.736;2022-08-03T04:33:31;0.75;;;0.52;;
37535;SDS011;23379;51.554;6.736;2022-08-03T04:35:58;1.25;;;0.80;;
37535;SDS011;23379;51.554;6.736;2022-08-03T04:38:25;0.73;;;0.73;;
37535;SDS011;23379;51.554;6.736;2022-08-03T04:40:54;0.85;;;0.63;;
37535;SDS011;23379;51.554;6.736;2022-08-03T04:43:20;2.53;;;1.63;;
37535;SDS011;23379;51.554;6.736;2022-08-03T04:45:47;0.47;;;0.47;;
37535;SDS011;23379;51.554;6.736;2022-08-03T04:48:14;0.65;;;0.50;;
37535;SDS011;23379;51.554;6.736;2022-08-03T04:50:40;2.42;;;0.93;;
37535;SDS011;23379;51.554;6.736;2022-08-03T04:53:06;1.25;;;0.88;;
37535;SDS011;23379;51.554;6.736;2022-08-03T04:55:32;2.85;;;0.95;;
37535;SDS011;23379;51.554;6.736;2022-08-03T04:57:58;0.55;;;0.55;;
37535;SDS011;23379;51.554;6.736;2022-08-03T05:00:25;0.82;;;0.82;;
37535;SDS011;23379;51.554;6.736;2022-08-03T05:02:50;0.45;;;0.40;;
37535;SDS011;23379;51.554;6.736;2022-08-03T05:05:17;0.60;;;0.60;;
37535;SDS011;23379;51.554;6.736;2022-08-03T05:07:43;2.15;;;0.50;;
37535;SDS011;23379;51.554;6.736;2022-08-03T05:10:09;1.23;;;1.13;;
37535;SDS011;23379;51.554;6.736;2022-08-03T05:12:36;0.65;;;0.60;;
37535;SDS011;23379;51.554;6.736;2022-08-03T05:15:01;1.33;;;0.70;;
37535;SDS011;23379;51.554;6.736;2022-08-03T05:17:27;1.95;;;1.10;;
37535;SDS011;23379;51.554;6.736;2022-08-03T05:19:53;0.60;;;0.55;;
37535;SDS011;23379;51.554;6.736;2022-08-03T05:22:19;0.70;;;0.70;;
37535;SDS011;23379;51.554;6.736;2022-08-03T05:24:45;3.65;;;0.52;;
37535;SDS011;23379;51.554;6.736;2022-08-03T05:27:10;3.20;;;1.25;;
37535;SDS011;23379;51.554;6.736;2022-08-03T05:29:41;3.08;;;1.38;;
37535;SDS011;23379;51.554;6.736;2022-08-03T05:32:07;0.60;;;0.50;;
37535;SDS011;23379;51.554;6.736;2022-08-03T05:34:32;2.17;;;1.17;;
37535;SDS011;23379;51.554;6.736;2022-08-03T05:36:59;6.35;;;1.98;;
37535;SDS011;23379;51.554;6.736;2022-08-03T05:39:25;2.97;;;0.98;;
37535;SDS011;23379;51.554;6.736;2022-08-03T05:41:50;4.90;;;1.35;;
37535;SDS011;23379;51.554;6.736;2022-08-03T05:44:15;2.35;;;1.00;;
37535;SDS011;23379;51.554;6.736;2022-08-03T05:46:41;2.15;;;0.68;;
37535;SDS011;23379;51.554;6.736;2022-08-03T05:49:06;2.10;;;1.25;;
37535;SDS011;23379;51.554;6.736;2022-08-03T05:51:32;4.47;;;1.67;;
37535;SDS011;23379;51.554;6.736;2022-08-03T05:53:57;1.40;;;1.02;;
37535;SDS011;23379;51.554;6.736;2022-08-03T05:56:23;2.65;;;1.63;;
37535;SDS011;23379;51.554;6.736;2022-08-03T05:58:49;2.17;;;1.25;;
37535;SDS011;23379;51.554;6.736;2022-08-03T06:01:17;1.95;;;0.60;;
37535;SDS011;23379;51.554;6.736;2022-08-03T06:03:43;4.15;;;1.35;;
37535;SDS011;23379;51.554;6.736;2022-08-03T06:06:09;3.38;;;1.50;;
37535;SDS011;23379;51.554;6.736;2022-08-03T06:08:35;7.03;;;1.25;;
37535;SDS011;23379;51.554;6.736;2022-08-03T06:11:01;1.77;;;1.45;;
37535;SDS011;23379;51.554;6.736;2022-08-03T06:13:26;1.85;;;1.02;;
37535;SDS011;23379;51.554;6.736;2022-08-03T06:15:52;2.55;;;1.10;;
37535;SDS011;23379;51.554;6.736;2022-08-03T06:18:17;3.30;;;1.40;;
37535;SDS011;23379;51.554;6.736;2022-08-03T06:20:43;18.20;;;1.83;;
37535;SDS011;23379;51.554;6.736;2022-08-03T06:23:08;1.50;;;0.82;;
37535;SDS011;23379;51.554;6.736;2022-08-03T06:25:34;3.20;;;1.02;;
37535;SDS011;23379;51.554;6.736;2022-08-03T06:27:59;3.63;;;1.02;;
37535;SDS011;23379;51.554;6.736;2022-08-03T06:30:25;0.73;;;0.63;;
37535;SDS011;23379;51.554;6.736;2022-08-03T06:32:50;1.17;;;0.68;;
37535;SDS011;23379;51.554;6.736;2022-08-03T06:35:15;1.52;;;0.90;;
37535;SDS011;23379;51.554;6.736;2022-08-03T06:37:45;2.70;;;1.10;;
37535;SDS011;23379;51.554;6.736;2022-08-03T06:40:12;3.38;;;1.05;;
37535;SDS011;23379;51.554;6.736;2022-08-03T06:42:39;1.67;;;0.68;;
37535;SDS011;23379;51.554;6.736;2022-08-03T06:45:05;18.15;;;0.80;;
37535;SDS011;23379;51.554;6.736;2022-08-03T06:47:33;0.13;;;0.13;;
37535;SDS011;23379;51.554;6.736;2022-08-03T06:49:59;0.32;;;0.25;;
37535;SDS011;23379;51.554;6.736;2022-08-03T06:52:24;1.23;;;0.70;;
37535;SDS011;23379;51.554;6.736;2022-08-03T06:54:50;0.30;;;0.30;;
37535;SDS011;23379;51.554;6.736;2022-08-03T06:57:15;0.30;;;0.30;;
37535;SDS011;23379;51.554;6.736;2022-08-03T06:59:42;0.47;;;0.45;;
37535;SDS011;23379;51.554;6.736;2022-08-03T07:02:08;0.50;;;0.40;;
37535;SDS011;23379;51.554;6.736;2022-08-03T07:04:34;0.70;;;0.52;;
37535;SDS011;23379;51.554;6.736;2022-08-03T07:06:59;0.57;;;0.57;;
37535;SDS011;23379;51.554;6.736;2022-08-03T07:09:25;0.80;;;0.47;;
37535;SDS011;23379;51.554;6.736;2022-08-03T07:11:50;3.63;;;0.57;;
37535;SDS011;23379;51.554;6.736;2022-08-03T07:14:16;0.90;;;0.65;;
37535;SDS011;23379;51.554;6.736;2022-08-03T07:16:41;9.07;;;0.70;;
37535;SDS011;23379;51.554;6.736;2022-08-03T07:19:07;0.52;;;0.20;;
37535;SDS011;23379;51.554;6.736;2022-08-03T07:21:32;4.38;;;0.98;;
37535;SDS011;23379;51.554;6.736;2022-08-03T07:23:58;3.40;;;1.00;;
37535;SDS011;23379;51.554;6.736;2022-08-03T07:26:24;1.13;;;0.57;;
37535;SDS011;23379;51.554;6.736;2022-08-03T07:28:50;0.25;;;0.20;;
37535;SDS011;23379;51.554;6.736;2022-08-03T07:31:15;0.32;;;0.15;;
37535;SDS011;23379;51.554;6.736;2022-08-03T07:33:41;0.00;;;0.00;;
37535;SDS011;23379;51.554;6.736;2022-08-03T07:36:06;0.73;;;0.50;;
37535;SDS011;23379;51.554;6.736;2022-08-03T07:38:33;0.68;;;0.43;;
37535;SDS011;23379;51.554;6.736;2022-08-03T07:40:59;5.68;;;0.57;;
37535;SDS011;23379;51.554;6.736;2022-08-03T07:43:25;0.73;;;0.47;;
37535;SDS011;23379;51.554;6.736;2022-08-03T07:45:50;0.15;;;0.10;;
37535;SDS011;23379;51.554;6.736;2022-08-03T07:48:16;1.75;;;0.55;;
37535;SDS011;23379;51.554;6.736;2022-08-03T07:50:41;0.30;;;0.15;;
37535;SDS011;23379;51.554;6.736;2022-08-03T07:53:06;1.60;;;0.30;;
37535;SDS011;23379;51.554;6.736;2022-08-03T07:55:32;0.00;;;0.00;;
37535;SDS011;23379;51.554;6.736;2022-08-03T08:00:33;0.57;;;0.20;;
37535;SDS011;23379;51.554;6.736;2022-08-03T08:02:58;2.42;;;0.40;;
37535;SDS011;23379;51.554;6.736;2022-08-03T08:05:24;1.23;;;0.22;;
37535;SDS011;23379;51.554;6.736;2022-08-03T08:07:50;3.60;;;0.45;;
37535;SDS011;23379;51.554;6.736;2022-08-03T08:10:15;0.00;;;0.00;;
37535;SDS011;23379;51.554;6.736;2022-08-03T08:12:41;0.70;;;0.20;;
37535;SDS011;23379;51.554;6.736;2022-08-03T08:15:06;2.10;;;0.70;;
37535;SDS011;23379;51.554;6.736;2022-08-03T08:17:42;1.00;;;0.32;;
37535;SDS011;23379;51.554;6.736;2022-08-03T08:20:30;0.10;;;0.10;;
37535;SDS011;23379;51.554;6.736;2022-08-03T08:25:27;0.22;;;0.17;;
37535;SDS011;23379;51.554;6.736;2022-08-03T08:27:53;0.38;;;0.05;;
37535;SDS011;23379;51.554;6.736;2022-08-03T08:30:19;0.20;;;0.10;;
37535;SDS011;23379;51.554;6.736;2022-08-03T08:32:46;0.00;;;0.00;;
37535;SDS011;23379;51.554;6.736;2022-08-03T08:35:12;0.00;;;0.00;;
37535;SDS011;23379;51.554;6.736;2022-08-03T08:37:38;0.82;;;0.10;;
37535;SDS011;23379;51.554;6.736;2022-08-03T08:40:04;0.38;;;0.10;;
37535;SDS011;23379;51.554;6.736;2022-08-03T08:42:32;0.30;;;0.20;;
37535;SDS011;23379;51.554;6.736;2022-08-03T08:45:01;0.00;;;0.00;;
37535;SDS011;23379;51.554;6.736;2022-08-03T08:47:29;0.00;;;0.00;;
37535;SDS011;23379;51.554;6.736;2022-08-03T08:49:56;0.30;;;0.20;;
37535;SDS011;23379;51.554;6.736;2022-08-03T08:52:29;0.57;;;0.28;;
37535;SDS011;23379;51.554;6.736;2022-08-03T08:54:59;0.10;;;0.00;;
37535;SDS011;23379;51.554;6.736;2022-08-03T08:57:30;4.72;;;0.80;;
37535;SDS011;23379;51.554;6.736;2022-08-03T09:00:08;0.32;;;0.13;;
37535;SDS011;23379;51.554;6.736;2022-08-03T09:02:37;0.35;;;0.20;;
37535;SDS011;23379;51.554;6.736;2022-08-03T09:05:03;0.00;;;0.00;;
37535;SDS011;23379;51.554;6.736;2022-08-03T09:07:29;0.03;;;0.03;;
37535;SDS011;23379;51.554;6.736;2022-08-03T09:09:54;2.92;;;0.25;;
37535;SDS011;23379;51.554;6.736;2022-08-03T09:12:20;0.77;;;0.25;;
37535;SDS011;23379;51.554;6.736;2022-08-03T09:14:46;1.17;;;0.10;;
37535;SDS011;23379;51.554;6.736;2022-08-03T09:17:11;2.30;;;0.30;;
37535;SDS011;23379;51.554;6.736;2022-08-03T09:19:37;0.17;;;0.00;;
37535;SDS011;23379;51.554;6.736;2022-08-03T09:22:07;0.40;;;0.22;;
37535;SDS011;23379;51.554;6.736;2022-08-03T09:24:34;0.20;;;0.08;;
37535;SDS011;23379;51.554;6.736;2022-08-03T09:27:00;0.25;;;0.20;;
37535;SDS011;23379;51.554;6.736;2022-08-03T09:29:25;0.55;;;0.17;;
37535;SDS011;23379;51.554;6.736;2022-08-03T09:31:58;0.10;;;0.08;;
37535;SDS011;23379;51.554;6.736;2022-08-03T09:34:25;0.77;;;0.10;;
37535;SDS011;23379;51.554;6.736;2022-08-03T09:36:52;0.68;;;0.28;;
37535;SDS011;23379;51.554;6.736;2022-08-03T09:39:19;0.10;;;0.00;;
37535;SDS011;23379;51.554;6.736;2022-08-03T09:44:47;0.60;;;0.30;;
37535;SDS011;23379;51.554;6.736;2022-08-03T09:47:35;0.50;;;0.30;;
37535;SDS011;23379;51.554;6.736;2022-08-03T09:50:03;0.10;;;0.00;;
37535;SDS011;23379;51.554;6.736;2022-08-03T09:52:34;0.95;;;0.20;;
37535;SDS011;23379;51.554;6.736;2022-08-03T09:57:36;0.00;;;0.00;;
37535;SDS011;23379;51.554;6.736;2022-08-03T10:00:22;2.78;;;0.50;;
37535;SDS011;23379;51.554;6.736;2022-08-03T10:02:48;0.00;;;0.00;;
37535;SDS011;23379;51.554;6.736;2022-08-03T10:05:14;0.60;;;0.00;;
37535;SDS011;23379;51.554;6.736;2022-08-03T10:10:08;0.35;;;0.25;;
37535;SDS011;23379;51.554;6.736;2022-08-03T10:12:34;0.25;;;0.15;;
37535;SDS011;23379;51.554;6.736;2022-08-03T10:15:00;0.03;;;0.00;;
37535;SDS011;23379;51.554;6.736;2022-08-03T10:17:26;0.00;;;0.00;;
37535;SDS011;23379;51.554;6.736;2022-08-03T10:19:52;1.08;;;0.10;;
37535;SDS011;23379;51.554;6.736;2022-08-03T10:22:18;0.40;;;0.10;;
37535;SDS011;23379;51.554;6.736;2022-08-03T10:25:02;0.13;;;0.10;;
37535;SDS011;23379;51.554;6.736;2022-08-03T10:27:36;0.20;;;0.05;;
37535;SDS011;23379;51.554;6.736;2022-08-03T10:30:04;0.17;;;0.17;;
37535;SDS011;23379;51.554;6.736;2022-08-03T10:35:37;0.10;;;0.10;;
37535;SDS011;23379;51.554;6.736;2022-08-03T10:38:18;0.10;;;0.08;;
37535;SDS011;23379;51.554;6.736;2022-08-03T10:40:47;0.10;;;0.10;;
37535;SDS011;23379;51.554;6.736;2022-08-03T10:43:17;0.00;;;0.00;;
37535;SDS011;23379;51.554;6.736;2022-08-03T10:45:44;0.15;;;0.15;;
37535;SDS011;23379;51.554;6.736;2022-08-03T10:48:10;0.00;;;0.00;;
37535;SDS011;23379;51.554;6.736;2022-08-03T10:50:36;0.00;;;0.00;;
37535;SDS011;23379;51.554;6.736;2022-08-03T10:53:03;0.03;;;0.00;;
37535;SDS011;23379;51.554;6.736;2022-08-03T11:01:03;0.10;;;0.05;;
37535;SDS011;23379;51.554;6.736;2022-08-03T11:03:30;1.50;;;0.30;;
37535;SDS011;23379;51.554;6.736;2022-08-03T11:06:15;0.00;;;0.00;;
37535;SDS011;23379;51.554;6.736;2022-08-03T11:08:44;0.52;;;0.00;;
37535;SDS011;23379;51.554;6.736;2022-08-03T11:19:16;1.85;;;0.20;;
37535;SDS011;23379;51.554;6.736;2022-08-03T11:37:36;0.43;;;0.00;;
37535;SDS011;23379;51.554;6.736;2022-08-03T11:45:58;0.77;;;0.32;;
37535;SDS011;23379;51.554;6.736;2022-08-03T11:48:27;2.67;;;0.55;;
37535;SDS011;23379;51.554;6.736;2022-08-03T11:51:04;5.93;;;0.45;;
37535;SDS011;23379;51.554;6.736;2022-08-03T11:53:32;0.00;;;0.00;;
37535;SDS011;23379;51.554;6.736;2022-08-03T11:55:58;0.45;;;0.20;;
37535;SDS011;23379;51.554;6.736;2022-08-03T11:58:26;0.10;;;0.03;;
37535;SDS011;23379;51.554;6.736;2022-08-03T12:00:52;0.68;;;0.20;;
37535;SDS011;23379;51.554;6.736;2022-08-03T12:03:30;2.05;;;0.30;;
37535;SDS011;23379;51.554;6.736;2022-08-03T12:05:57;0.03;;;0.03;;
37535;SDS011;23379;51.554;6.736;2022-08-03T12:10:50;0.03;;;0.00;;
37535;SDS011;23379;51.554;6.736;2022-08-03T12:13:16;0.00;;;0.00;;
37535;SDS011;23379;51.554;6.736;2022-08-03T12:15:42;0.00;;;0.00;;
37535;SDS011;23379;51.554;6.736;2022-08-03T12:18:16;0.00;;;0.00;;
37535;SDS011;23379;51.554;6.736;2022-08-03T12:20:42;0.93;;;0.13;;
37535;SDS011;23379;51.554;6.736;2022-08-03T12:23:09;0.10;;;0.10;;
37535;SDS011;23379;51.554;6.736;2022-08-03T12:25:36;0.52;;;0.35;;
37535;SDS011;23379;51.554;6.736;2022-08-03T12:28:10;0.08;;;0.00;;
37535;SDS011;23379;51.554;6.736;2022-08-03T12:30:41;0.52;;;0.20;;
37535;SDS011;23379;51.554;6.736;2022-08-03T12:33:25;0.00;;;0.00;;
37535;SDS011;23379;51.554;6.736;2022-08-03T12:36:25;0.40;;;0.10;;
37535;SDS011;23379;51.554;6.736;2022-08-03T12:38:43;0.00;;;0.00;;
37535;SDS011;23379;51.554;6.736;2022-08-03T12:41:25;0.17;;;0.13;;
37535;SDS011;23379;51.554;6.736;2022-08-03T12:43:52;0.00;;;0.00;;
37535;SDS011;23379;51.554;6.736;2022-08-03T12:46:19;0.55;;;0.10;;
37535;SDS011;23379;51.554;6.736;2022-08-03T12:54:17;0.00;;;0.00;;
37535;SDS011;23379;51.554;6.736;2022-08-03T12:56:56;0.00;;;0.00;;
37535;SDS011;23379;51.554;6.736;2022-08-03T12:59:36;0.08;;;0.05;;
37535;SDS011;23379;51.554;6.736;2022-08-03T13:02:12;0.20;;;0.00;;
37535;SDS011;23379;51.554;6.736;2022-08-03T13:04:41;1.85;;;0.30;;
37535;SDS011;23379;51.554;6.736;2022-08-03T13:07:08;0.00;;;0.00;;
37535;SDS011;23379;51.554;6.736;2022-08-03T13:09:47;0.00;;;0.00;;
37535;SDS011;23379;51.554;6.736;2022-08-03T13:12:19;1.45;;;0.10;;
37535;SDS011;23379;51.554;6.736;2022-08-03T13:14:58;0.00;;;0.00;;
37535;SDS011;23379;51.554;6.736;2022-08-03T13:17:25;0.00;;;0.00;;
37535;SDS011;23379;51.554;6.736;2022-08-03T13:19:52;0.20;;;0.10;;
37535;SDS011;23379;51.554;6.736;2022-08-03T13:22:18;1.27;;;0.38;;
37535;SDS011;23379;51.554;6.736;2022-08-03T13:24:51;0.80;;;0.20;;
37535;SDS011;23379;51.554;6.736;2022-08-03T13:27:21;1.08;;;0.45;;
37535;SDS011;23379;51.554;6.736;2022-08-03T13:29:50;0.10;;;0.00;;
37535;SDS011;23379;51.554;6.736;2022-08-03T13:32:17;0.00;;;0.00;;
37535;SDS011;23379;51.554;6.736;2022-08-03T13:34:43;0.00;;;0.00;;
37535;SDS011;23379;51.554;6.736;2022-08-03T13:37:08;0.10;;;0.03;;
37535;SDS011;23379;51.554;6.736;2022-08-03T13:39:36;0.15;;;0.13;;
37535;SDS011;23379;51.554;6.736;2022-08-03T13:42:05;0.35;;;0.22;;
37535;SDS011;23379;51.554;6.736;2022-08-03T13:44:31;0.00;;;0.00;;
37535;SDS011;23379;51.554;6.736;2022-08-03T13:46:56;0.00;;;0.00;;
37535;SDS011;23379;51.554;6.736;2022-08-03T13:49:23;0.20;;;0.10;;
37535;SDS011;23379;51.554;6.736;2022-08-03T13:51:48;2.28;;;0.55;;
37535;SDS011;23379;51.554;6.736;2022-08-03T13:54:14;0.35;;;0.03;;
37535;SDS011;23379;51.554;6.736;2022-08-03T13:56:39;0.38;;;0.00;;
37535;SDS011;23379;51.554;6.736;2022-08-03T13:59:05;1.63;;;0.25;;
37535;SDS011;23379;51.554;6.736;2022-08-03T14:01:31;1.48;;;0.20;;
37535;SDS011;23379;51.554;6.736;2022-08-03T14:03:56;0.32;;;0.00;;
37535;SDS011;23379;51.554;6.736;2022-08-03T14:06:23;0.85;;;0.08;;
37535;SDS011;23379;51.554;6.736;2022-08-03T14:08:50;0.00;;;0.00;;
37535;SDS011;23379;51.554;6.736;2022-08-03T14:11:16;0.00;;;0.00;;
37535;SDS011;23379;51.554;6.736;2022-08-03T14:13:45;0.00;;;0.00;;
37535;SDS011;23379;51.554;6.736;2022-08-03T14:16:15;0.43;;;0.20;;
37535;SDS011;23379;51.554;6.736;2022-08-03T14:18:44;0.28;;;0.10;;
37535;SDS011;23379;51.554;6.736;2022-08-03T14:21:10;0.00;;;0.00;;
37535;SDS011;23379;51.554;6.736;2022-08-03T14:23:36;0.38;;;0.22;;
37535;SDS011;23379;51.554;6.736;2022-08-03T14:26:02;0.38;;;0.38;;
37535;SDS011;23379;51.554;6.736;2022-08-03T14:28:35;0.22;;;0.00;;
37535;SDS011;23379;51.554;6.736;2022-08-03T14:31:01;0.17;;;0.08;;
37535;SDS011;23379;51.554;6.736;2022-08-03T14:33:27;0.45;;;0.13;;
37535;SDS011;23379;51.554;6.736;2022-08-03T14:35:52;0.22;;;0.22;;
37535;SDS011;23379;51.554;6.736;2022-08-03T14:38:18;0.00;;;0.00;;
37535;SDS011;23379;51.554;6.736;2022-08-03T14:40:44;0.00;;;0.00;;
37535;SDS011;23379;51.554;6.736;2022-08-03T14:43:13;0.00;;;0.00;;
37535;SDS011;23379;51.554;6.736;2022-08-03T14:45:41;0.10;;;0.05;;
37535;SDS011;23379;51.554;6.736;2022-08-03T14:48:07;0.43;;;0.15;;
37535;SDS011;23379;51.554;6.736;2022-08-03T14:50:33;0.00;;;0.00;;
37535;SDS011;23379;51.554;6.736;2022-08-03T14:53:04;0.30;;;0.22;;
37535;SDS011;23379;51.554;6.736;2022-08-03T14:55:38;0.03;;;0.00;;
37535;SDS011;23379;51.554;6.736;2022-08-03T14:58:04;1.38;;;0.20;;
37535;SDS011;23379;51.554;6.736;2022-08-03T15:00:40;2.40;;;0.22;;
37535;SDS011;23379;51.554;6.736;2022-08-03T15:03:05;3.38;;;0.30;;
37535;SDS011;23379;51.554;6.736;2022-08-03T15:05:57;3.88;;;0.47;;
37535;SDS011;23379;51.554;6.736;2022-08-03T15:08:28;0.20;;;0.17;;
37535;SDS011;23379;51.554;6.736;2022-08-03T15:10:54;0.40;;;0.17;;
37535;SDS011;23379;51.554;6.736;2022-08-03T15:13:25;1.65;;;0.40;;
37535;SDS011;23379;51.554;6.736;2022-08-03T15:15:51;0.00;;;0.00;;
37535;SDS011;23379;51.554;6.736;2022-08-03T15:18:17;2.65;;;0.10;;
37535;SDS011;23379;51.554;6.736;2022-08-03T15:20:44;0.00;;;0.00;;
37535;SDS011;23379;51.554;6.736;2022-08-03T15:23:09;0.00;;;0.00;;
37535;SDS011;23379;51.554;6.736;2022-08-03T15:25:35;0.00;;;0.00;;
37535;SDS011;23379;51.554;6.736;2022-08-03T15:28:00;0.10;;;0.05;;
37535;SDS011;23379;51.554;6.736;2022-08-03T15:30:26;2.10;;;0.43;;
37535;SDS011;23379;51.554;6.736;2022-08-03T15:32:51;0.10;;;0.10;;
37535;SDS011;23379;51.554;6.736;2022-08-03T15:35:17;1.13;;;0.32;;
37535;SDS011;23379;51.554;6.736;2022-08-03T15:37:42;0.00;;;0.00;;
37535;SDS011;23379;51.554;6.736;2022-08-03T15:40:09;0.45;;;0.17;;
37535;SDS011;23379;51.554;6.736;2022-08-03T15:42:34;0.13;;;0.05;;
37535;SDS011;23379;51.554;6.736;2022-08-03T15:45:00;0.45;;;0.17;;
37535;SDS011;23379;51.554;6.736;2022-08-03T15:47:25;0.00;;;0.00;;
37535;SDS011;23379;51.554;6.736;2022-08-03T15:49:51;0.00;;;0.00;;
37535;SDS011;23379;51.554;6.736;2022-08-03T15:52:16;0.25;;;0.10;;
37535;SDS011;23379;51.554;6.736;2022-08-03T15:54:42;0.00;;;0.00;;
37535;SDS011;23379;51.554;6.736;2022-08-03T15:57:07;0.45;;;0.30;;
37535;SDS011;23379;51.554;6.736;2022-08-03T15:59:33;0.30;;;0.10;;
37535;SDS011;23379;51.554;6.736;2022-08-03T16:01:58;3.63;;;0.30;;
37535;SDS011;23379;51.554;6.736;2022-08-03T16:04:34;1.75;;;0.30;;
37535;SDS011;23379;51.554;6.736;2022-08-03T16:07:02;0.00;;;0.00;;
37535;SDS011;23379;51.554;6.736;2022-08-03T16:09:28;1.10;;;0.17;;
37535;SDS011;23379;51.554;6.736;2022-08-03T16:11:53;1.88;;;0.30;;